createdAt,value
2022-07-30T00:00:24.871Z,66.66
2022-07-30T00:01:24.211Z,67.07
2022-07-30T00:02:29.814Z,66.89
2022-07-30T00:03:34.916Z,66.61
2022-07-30T00:04:38.938Z,67.16
2022-07-30T00:05:42.970Z,66.85
2022-07-30T00:06:48.491Z,66.85
2022-07-30T00:07:56.344Z,66.80
2022-07-30T00:09:02.978Z,66.85
2022-07-30T00:10:06.625Z,66.59
2022-07-30T00:11:10.724Z,66.59
2022-07-30T00:12:14.639Z,66.92
2022-07-30T00:13:19.343Z,66.92
2022-07-30T00:14:23.477Z,66.72
2022-07-30T00:15:29.033Z,67.27
2022-07-30T00:16:34.375Z,67.12
2022-07-30T00:17:38.577Z,67.50
2022-07-30T00:18:45.824Z,67.88
2022-07-30T00:19:51.229Z,67.88
2022-07-30T00:21:20.323Z,68.00
2022-07-30T00:22:10.935Z,67.96
2022-07-30T00:23:19.940Z,67.96
2022-07-30T00:24:24.560Z,67.53
2022-07-30T00:25:31.563Z,67.35
2022-07-30T00:26:37.339Z,67.70
2022-07-30T00:27:41.443Z,67.70
2022-07-30T00:28:48.628Z,67.45
2022-07-30T00:29:55.594Z,67.45
2022-07-30T00:31:04.909Z,67.64
2022-07-30T00:32:09.193Z,67.85
2022-07-30T00:33:17.031Z,68.18
2022-07-30T00:34:22.600Z,67.71
2022-07-30T00:35:28.765Z,68.27
2022-07-30T00:36:36.283Z,68.38
2022-07-30T00:37:43.044Z,67.68
2022-07-30T00:38:47.243Z,67.87
2022-07-30T00:39:51.417Z,67.87
2022-07-30T00:40:55.648Z,67.73
2022-07-30T00:42:08.061Z,67.94
2022-07-30T00:43:17.698Z,67.94
2022-07-30T00:44:21.885Z,67.47
2022-07-30T00:45:27.708Z,67.47
2022-07-30T00:46:32.918Z,67.95
2022-07-30T00:47:37.852Z,67.53
2022-07-30T00:48:42.553Z,68.32
2022-07-30T00:49:47.013Z,68.32
2022-07-30T00:50:53.016Z,68.65
2022-07-30T00:51:57.339Z,68.18
2022-07-30T00:53:01.440Z,69.15
2022-07-30T00:54:09.312Z,69.18
2022-07-30T00:55:15.492Z,69.29
2022-07-30T00:56:23.979Z,68.51
2022-07-30T00:57:28.812Z,68.78
2022-07-30T00:58:34.575Z,68.78
2022-07-30T00:59:40.038Z,68.25
2022-07-30T01:00:46.877Z,68.25
2022-07-30T01:01:53.847Z,68.34
2022-07-30T01:03:03.265Z,68.49
2022-07-30T01:04:09.224Z,68.49
2022-07-30T01:05:13.924Z,68.30
2022-07-30T01:06:18.497Z,68.29
2022-07-30T01:07:24.088Z,68.29
2022-07-30T01:08:28.324Z,69.19
2022-07-30T01:09:32.362Z,68.55
2022-07-30T01:10:37.030Z,68.96
2022-07-30T01:11:42.549Z,69.14
2022-07-30T01:12:46.863Z,69.76
2022-07-30T01:13:53.468Z,69.49
2022-07-30T01:15:00.042Z,69.49
2022-07-30T01:16:04.657Z,69.57
2022-07-30T01:17:10.539Z,69.24
2022-07-30T01:18:16.277Z,69.24
2022-07-30T01:19:26.115Z,69.62
2022-07-30T01:20:34.115Z,69.39
2022-07-30T01:21:41.230Z,69.39
2022-07-30T01:23:10.514Z,69.01
2022-07-30T01:24:23.556Z,69.01
2022-07-30T01:25:44.308Z,69.76
2022-07-30T01:26:52.484Z,70.78
2022-07-30T01:28:06.690Z,70.78
2022-07-30T01:29:13.726Z,70.62
2022-07-30T01:30:22.033Z,70.62
2022-07-30T01:31:28.945Z,70.60
2022-07-30T01:32:36.136Z,71.00
2022-07-30T01:33:43.099Z,71.00
2022-07-30T01:34:50.386Z,70.21
2022-07-30T01:35:56.620Z,70.50
2022-07-30T01:37:05.247Z,70.43
2022-07-30T01:38:12.831Z,70.58
2022-07-30T01:39:19.700Z,70.39
2022-07-30T01:40:26.639Z,70.36
2022-07-30T01:41:34.850Z,70.45
2022-07-30T01:42:41.239Z,70.19
2022-07-30T01:43:48.603Z,70.19
2022-07-30T01:44:54.801Z,70.57
2022-07-30T01:46:00.450Z,70.79
2022-07-30T01:47:08.620Z,70.79
2022-07-30T01:48:15.121Z,71.45
2022-07-30T01:49:33.360Z,71.45
2022-07-30T01:50:31.097Z,71.54
2022-07-30T01:51:37.884Z,71.90
2022-07-30T01:52:49.091Z,71.90
2022-07-30T01:53:55.868Z,71.78
2022-07-30T01:55:02.472Z,71.80
2022-07-30T01:56:13.193Z,71.80
2022-07-30T01:57:22.285Z,71.97
2022-07-30T01:58:29.631Z,71.97
2022-07-30T01:59:35.987Z,71.44
2022-07-30T02:00:43.734Z,72.12
2022-07-30T02:01:48.308Z,72.12
2022-07-30T02:02:52.342Z,71.88
2022-07-30T02:03:57.943Z,71.88
2022-07-30T02:05:03.564Z,71.89
2022-07-30T02:06:12.112Z,71.89
2022-07-30T02:07:22.792Z,71.82
2022-07-30T02:08:38.922Z,71.79
2022-07-30T02:09:47.450Z,72.09
2022-07-30T02:11:00.166Z,71.69
2022-07-30T02:12:09.306Z,71.69
2022-07-30T02:13:15.404Z,72.05
2022-07-30T02:14:38.725Z,71.92
2022-07-30T02:16:00.761Z,71.50
2022-07-30T02:17:08.145Z,71.50
2022-07-30T02:18:23.743Z,72.15
2022-07-30T02:19:32.647Z,71.76
2022-07-30T02:20:38.468Z,72.23
2022-07-30T02:21:49.745Z,72.16
2022-07-30T02:22:53.547Z,72.16
2022-07-30T02:23:58.673Z,71.87
2022-07-30T02:25:05.600Z,71.61
2022-07-30T02:26:14.087Z,72.02
2022-07-30T02:27:26.492Z,72.02
2022-07-30T02:28:36.416Z,71.75
2022-07-30T02:29:40.959Z,72.08
2022-07-30T02:30:53.659Z,72.08
2022-07-30T02:32:00.349Z,72.38
2022-07-30T02:33:07.497Z,72.35
2022-07-30T02:34:14.210Z,72.35
2022-07-30T02:35:24.059Z,72.27
2022-07-30T02:36:32.112Z,72.27
2022-07-30T02:37:43.043Z,71.96
2022-07-30T02:38:44.306Z,71.96
2022-07-30T02:39:49.767Z,71.52
2022-07-30T02:40:56.838Z,71.52
2022-07-30T02:42:02.881Z,72.25
2022-07-30T02:43:06.866Z,72.17
2022-07-30T02:44:12.222Z,71.56
2022-07-30T02:45:18.572Z,71.82
2022-07-30T02:46:25.329Z,71.82
2022-07-30T02:47:30.088Z,71.20
2022-07-30T02:48:36.180Z,71.41
2022-07-30T02:49:42.323Z,71.08
2022-07-30T02:50:48.356Z,71.08
2022-07-30T02:51:53.575Z,72.13
2022-07-30T02:53:00.823Z,72.13
2022-07-30T02:54:05.778Z,72.00
2022-07-30T02:55:12.466Z,72.00
2022-07-30T02:56:19.725Z,73.28
2022-07-30T02:57:25.076Z,73.28
2022-07-30T02:58:31.108Z,73.98
2022-07-30T02:59:40.071Z,73.98
2022-07-30T03:00:45.805Z,73.11
2022-07-30T03:01:51.235Z,73.04
2022-07-30T03:02:58.427Z,73.04
2022-07-30T03:04:05.046Z,73.47
2022-07-30T03:05:09.841Z,74.38
2022-07-30T03:06:17.009Z,74.38
2022-07-30T03:07:22.257Z,74.62
2022-07-30T03:08:28.219Z,74.55
2022-07-30T03:09:52.032Z,74.60
2022-07-30T03:10:41.699Z,74.60
2022-07-30T03:11:48.370Z,75.05
2022-07-30T03:12:52.984Z,75.02
2022-07-30T03:13:58.799Z,74.90
2022-07-30T03:15:06.314Z,74.93
2022-07-30T03:16:11.252Z,74.61
2022-07-30T03:17:17.322Z,74.61
2022-07-30T03:18:22.438Z,74.77
2022-07-30T03:19:29.445Z,74.52
2022-07-30T03:20:36.112Z,74.52
2022-07-30T03:21:43.543Z,74.50
2022-07-30T03:22:51.970Z,74.85
2022-07-30T03:23:58.732Z,74.99
2022-07-30T03:25:05.230Z,74.78
2022-07-30T03:26:11.449Z,74.78
2022-07-30T03:27:16.509Z,75.04
2022-07-30T03:28:22.544Z,75.39
2022-07-30T03:29:29.723Z,75.04
2022-07-30T03:30:35.542Z,74.99
2022-07-30T03:31:41.115Z,74.77
2022-07-30T03:32:45.680Z,74.77
2022-07-30T03:33:52.660Z,74.78
2022-07-30T03:35:03.010Z,74.78
2022-07-30T03:36:07.199Z,74.58
2022-07-30T03:37:12.327Z,74.88
2022-07-30T03:38:17.353Z,74.68
2022-07-30T03:39:22.690Z,74.60
2022-07-30T03:40:31.560Z,73.90
2022-07-30T03:41:37.574Z,73.90
2022-07-30T03:42:44.196Z,74.32
2022-07-30T03:43:55.945Z,73.74
2022-07-30T03:44:55.842Z,73.94
2022-07-30T03:46:01.287Z,73.94
2022-07-30T03:47:07.413Z,73.48
2022-07-30T03:48:13.392Z,73.48
2022-07-30T03:49:18.637Z,73.48
2022-07-30T03:50:24.440Z,73.48
2022-07-30T03:51:33.132Z,73.19
2022-07-30T03:52:40.895Z,73.19
2022-07-30T03:53:59.158Z,72.83
2022-07-30T03:54:52.693Z,72.93
2022-07-30T03:55:57.244Z,72.88
2022-07-30T03:57:20.374Z,72.88
2022-07-30T03:58:18.935Z,73.31
2022-07-30T03:59:20.028Z,73.11
2022-07-30T04:00:26.721Z,73.32
2022-07-30T04:01:30.955Z,73.32
2022-07-30T04:02:43.328Z,73.12
2022-07-30T04:03:48.931Z,72.81
2022-07-30T04:04:53.115Z,72.86
2022-07-30T04:05:58.797Z,73.52
2022-07-30T04:07:04.525Z,73.03
2022-07-30T04:08:08.844Z,73.03
2022-07-30T04:09:13.703Z,73.36
2022-07-30T04:10:18.232Z,72.83
2022-07-30T04:11:41.536Z,72.91
2022-07-30T04:12:29.589Z,72.91
2022-07-30T04:13:33.768Z,72.64
2022-07-30T04:14:43.688Z,72.18
2022-07-30T04:16:35.555Z,72.18
2022-07-30T04:17:07.829Z,72.33
2022-07-30T04:18:13.510Z,72.33
2022-07-30T04:19:26.210Z,72.75
2022-07-30T04:20:37.742Z,72.31
2022-07-30T04:21:42.785Z,72.31
2022-07-30T04:22:48.195Z,72.30
2022-07-30T04:24:03.113Z,72.08
2022-07-30T04:25:04.667Z,72.08
2022-07-30T04:26:09.820Z,72.27
2022-07-30T04:27:15.118Z,72.27
2022-07-30T04:28:21.154Z,71.53
2022-07-30T04:29:25.310Z,71.53
2022-07-30T04:30:31.743Z,71.81
2022-07-30T04:31:41.097Z,71.68
2022-07-30T04:32:42.586Z,71.68
2022-07-30T04:33:47.208Z,71.36
2022-07-30T04:34:53.641Z,71.43
2022-07-30T04:35:57.629Z,71.43
2022-07-30T04:37:02.422Z,71.15
2022-07-30T04:38:06.899Z,69.97
2022-07-30T04:39:12.047Z,68.94
2022-07-30T04:40:16.522Z,68.17
2022-07-30T04:41:20.581Z,68.49
2022-07-30T04:42:26.894Z,68.18
2022-07-30T04:43:30.907Z,68.42
2022-07-30T04:44:35.346Z,68.42
2022-07-30T04:45:40.892Z,68.96
2022-07-30T04:46:45.059Z,69.47
2022-07-30T04:47:51.365Z,68.30
2022-07-30T04:48:57.300Z,69.10
2022-07-30T04:50:02.520Z,68.22
2022-07-30T04:51:09.496Z,68.22
2022-07-30T04:52:14.821Z,67.46
2022-07-30T04:53:19.834Z,67.30
2022-07-30T04:54:25.656Z,67.12
2022-07-30T04:55:33.991Z,67.12
2022-07-30T04:56:39.493Z,67.26
2022-07-30T04:57:46.921Z,67.26
2022-07-30T04:58:52.423Z,66.39
2022-07-30T04:59:56.667Z,65.50
2022-07-30T05:01:02.621Z,64.72
2022-07-30T05:02:09.440Z,64.77
2022-07-30T05:03:16.658Z,64.68
2022-07-30T05:04:24.910Z,65.11
2022-07-30T05:05:30.729Z,64.16
2022-07-30T05:06:35.717Z,64.16
2022-07-30T05:07:40.431Z,63.18
2022-07-30T05:08:45.952Z,62.48
2022-07-30T05:09:50.454Z,61.63
2022-07-30T05:10:54.928Z,61.82
2022-07-30T05:11:59.540Z,61.82
2022-07-30T05:13:03.517Z,62.00
2022-07-30T05:14:09.267Z,62.13
2022-07-30T05:15:13.355Z,62.13
2022-07-30T05:16:24.673Z,61.96
2022-07-30T05:17:30.100Z,61.57
2022-07-30T05:18:35.594Z,59.57
2022-07-30T05:19:39.632Z,59.57
2022-07-30T05:20:43.821Z,58.40
2022-07-30T05:21:49.393Z,57.59
2022-07-30T05:22:54.675Z,54.88
2022-07-30T05:23:58.735Z,54.88
2022-07-30T05:25:02.877Z,53.06
2022-07-30T05:27:20.129Z,50.72
2022-07-30T05:28:30.625Z,49.83
2022-07-30T05:29:41.705Z,48.87
2022-07-30T05:32:07.795Z,48.87
2022-07-30T05:33:15.886Z,47.35
2022-07-30T05:34:21.551Z,47.35
2022-07-30T05:35:27.113Z,46.96
2022-07-30T05:36:34.409Z,46.42
2022-07-30T05:37:46.454Z,46.42
2022-07-30T05:38:51.080Z,45.33
2022-07-30T05:39:58.913Z,44.75
2022-07-30T05:41:02.599Z,44.75
2022-07-30T05:42:06.786Z,45.04
2022-07-30T05:43:14.016Z,42.30
2022-07-30T05:44:22.097Z,42.56
2022-07-30T05:45:23.865Z,42.56
2022-07-30T05:46:29.597Z,42.39
2022-07-30T05:47:47.895Z,42.39
2022-07-30T05:48:45.449Z,41.20
2022-07-30T05:49:54.090Z,41.29
2022-07-30T05:50:58.626Z,41.29
2022-07-30T05:52:10.201Z,41.29
2022-07-30T05:54:27.934Z,39.95
2022-07-30T05:55:30.112Z,39.96
2022-07-30T05:56:36.128Z,39.96
2022-07-30T05:57:42.528Z,39.50
2022-07-30T05:58:50.906Z,39.46
2022-07-30T05:59:55.709Z,39.20
2022-07-30T06:01:00.174Z,39.20
2022-07-30T06:02:07.172Z,39.29
2022-07-30T06:03:18.255Z,39.24
2022-07-30T06:04:19.142Z,39.24
2022-07-30T06:05:27.921Z,38.99
2022-07-30T06:06:32.560Z,38.99
2022-07-30T06:07:36.880Z,38.59
2022-07-30T06:08:42.651Z,39.51
2022-07-30T06:09:46.997Z,38.48
2022-07-30T06:10:58.176Z,38.89
2022-07-30T06:11:58.859Z,38.89
2022-07-30T06:13:07.539Z,39.07
2022-07-30T06:14:15.851Z,39.07
2022-07-30T06:15:23.277Z,37.66
2022-07-30T06:16:24.505Z,37.29
2022-07-30T06:17:30.337Z,38.07
2022-07-30T06:18:34.573Z,38.07
2022-07-30T06:19:38.953Z,37.09
2022-07-30T06:20:43.055Z,37.93
2022-07-30T06:22:05.763Z,38.34
2022-07-30T06:22:52.853Z,38.34
2022-07-30T06:23:57.147Z,37.63
2022-07-30T06:25:03.109Z,37.95
2022-07-30T06:26:07.036Z,37.50
2022-07-30T06:27:11.171Z,37.65
2022-07-30T06:28:36.561Z,37.65
2022-07-30T06:29:22.164Z,38.14
2022-07-30T06:30:30.235Z,36.70
2022-07-30T06:31:32.709Z,36.70
2022-07-30T06:32:36.927Z,36.40
2022-07-30T06:33:40.995Z,36.76
2022-07-30T06:34:45.125Z,36.76
2022-07-30T06:35:49.201Z,36.38
2022-07-30T06:36:53.315Z,36.57
2022-07-30T06:38:01.802Z,36.79
2022-07-30T06:39:03.259Z,35.82
2022-07-30T06:40:08.156Z,36.77
2022-07-30T06:41:12.225Z,36.77
2022-07-30T06:42:16.972Z,35.84
2022-07-30T06:43:21.074Z,35.11
2022-07-30T06:44:25.154Z,34.99
2022-07-30T06:45:32.302Z,34.71
2022-07-30T06:46:36.621Z,34.71
2022-07-30T06:47:43.823Z,34.72
2022-07-30T06:48:47.951Z,34.75
2022-07-30T06:49:52.531Z,34.75
2022-07-30T06:50:56.589Z,33.46
2022-07-30T06:52:00.794Z,33.96
2022-07-30T06:53:09.983Z,34.13
2022-07-30T06:54:17.194Z,33.33
2022-07-30T06:55:16.642Z,33.60
2022-07-30T06:56:21.633Z,33.60
2022-07-30T06:57:25.745Z,33.38
2022-07-30T06:58:35.299Z,33.38
2022-07-30T06:59:57.317Z,32.17
2022-07-30T07:00:51.298Z,32.68
2022-07-30T07:01:55.133Z,32.02
2022-07-30T07:02:59.476Z,32.33
2022-07-30T07:04:05.125Z,32.33
2022-07-30T07:05:23.716Z,33.30
2022-07-30T07:06:22.043Z,32.65
2022-07-30T07:07:41.348Z,32.64
2022-07-30T07:08:34.870Z,32.39
2022-07-30T07:09:39.020Z,32.39
2022-07-30T07:10:45.233Z,32.55
2022-07-30T07:11:49.202Z,32.44
2022-07-30T07:12:54.689Z,32.44
2022-07-30T07:14:04.014Z,32.68
2022-07-30T07:15:04.744Z,32.68
2022-07-30T07:16:10.471Z,32.67
2022-07-30T07:17:14.627Z,32.64
2022-07-30T07:18:21.123Z,32.64
2022-07-30T07:20:01.493Z,32.94
2022-07-30T07:20:31.333Z,32.94
2022-07-30T07:21:35.499Z,33.13
2022-07-30T07:22:42.645Z,33.65
2022-07-30T07:23:48.581Z,33.22
2022-07-30T07:24:52.576Z,33.36
2022-07-30T07:25:57.115Z,32.91
2022-07-30T07:27:03.940Z,32.91
2022-07-30T07:28:11.759Z,33.41
2022-07-30T07:32:05.242Z,33.58
2022-07-30T07:32:17.523Z,33.22
2022-07-30T07:33:19.631Z,33.09
2022-07-30T07:34:23.753Z,33.56
2022-07-30T07:35:27.782Z,33.62
2022-07-30T07:36:35.094Z,33.64
2022-07-30T07:37:39.231Z,33.64
2022-07-30T07:38:47.123Z,33.67
2022-07-30T07:39:51.241Z,34.28
2022-07-30T07:40:55.352Z,34.28
2022-07-30T07:41:59.404Z,33.16
2022-07-30T07:43:03.439Z,33.16
2022-07-30T07:44:07.619Z,32.60
2022-07-30T07:45:11.973Z,33.36
2022-07-30T07:46:33.117Z,33.53
2022-07-30T07:47:29.883Z,34.37
2022-07-30T07:48:35.272Z,34.05
2022-07-30T07:49:42.496Z,34.47
2022-07-30T07:50:49.679Z,34.42
2022-07-30T07:51:54.798Z,34.42
2022-07-30T07:53:00.443Z,33.76
2022-07-30T07:54:21.031Z,32.61
2022-07-30T07:55:12.024Z,32.61
2022-07-30T07:56:18.819Z,32.46
2022-07-30T07:57:23.005Z,32.60
2022-07-30T07:58:29.492Z,32.73
2022-07-30T07:59:40.409Z,33.22
2022-07-30T08:00:42.828Z,32.75
2022-07-30T08:01:46.899Z,32.99
2022-07-30T08:02:51.935Z,32.99
2022-07-30T08:03:56.000Z,32.94
2022-07-30T08:05:00.010Z,32.94
2022-07-30T08:06:06.412Z,32.63
2022-07-30T08:07:09.758Z,32.92
2022-07-30T08:08:13.867Z,33.40
2022-07-30T08:09:18.028Z,34.56
2022-07-30T08:10:23.810Z,34.56
2022-07-30T08:11:28.628Z,33.91
2022-07-30T08:12:32.617Z,33.44
2022-07-30T08:13:49.001Z,33.86
2022-07-30T08:14:43.868Z,34.84
2022-07-30T08:15:47.851Z,35.01
2022-07-30T08:16:53.510Z,34.16
2022-07-30T08:17:58.083Z,34.05
2022-07-30T08:19:02.174Z,34.05
2022-07-30T08:20:09.859Z,33.80
2022-07-30T08:21:15.758Z,33.80
2022-07-30T08:22:24.035Z,33.84
2022-07-30T08:23:28.960Z,33.16
2022-07-30T08:24:33.206Z,33.16
2022-07-30T08:25:37.345Z,32.79
2022-07-30T08:26:42.968Z,33.00
2022-07-30T08:27:47.011Z,33.00
2022-07-30T08:28:54.397Z,33.50
2022-07-30T08:29:56.834Z,33.29
2022-07-30T08:31:02.835Z,33.54
2022-07-30T08:32:07.251Z,33.54
2022-07-30T08:33:19.743Z,33.73
2022-07-30T08:34:18.676Z,33.73
2022-07-30T08:35:25.659Z,32.65
2022-07-30T08:36:30.324Z,33.13
2022-07-30T08:37:34.473Z,33.13
2022-07-30T08:38:40.178Z,33.36
2022-07-30T08:39:47.408Z,33.57
2022-07-30T08:40:51.608Z,33.36
2022-07-30T08:41:55.955Z,32.98
2022-07-30T08:43:02.721Z,33.14
2022-07-30T08:44:12.543Z,33.82
2022-07-30T08:45:17.435Z,34.05
2022-07-30T08:46:24.704Z,34.05
2022-07-30T08:47:36.571Z,35.08
2022-07-30T08:48:44.603Z,33.60
2022-07-30T08:49:49.313Z,34.22
2022-07-30T08:50:54.317Z,34.21
2022-07-30T08:51:58.813Z,34.17
2022-07-30T08:53:04.070Z,34.34
2022-07-30T08:54:08.257Z,33.22
2022-07-30T08:55:12.430Z,33.31
2022-07-30T08:56:18.419Z,33.46
2022-07-30T08:57:26.947Z,33.46
2022-07-30T08:58:33.674Z,33.48
2022-07-30T08:59:59.523Z,33.03
2022-07-30T09:00:44.554Z,33.54
2022-07-30T09:01:48.796Z,32.98
2022-07-30T09:02:52.928Z,32.98
2022-07-30T09:03:58.160Z,33.48
2022-07-30T09:05:02.369Z,33.48
2022-07-30T09:06:06.601Z,33.20
2022-07-30T09:07:10.567Z,33.21
2022-07-30T09:08:17.779Z,33.10
2022-07-30T09:09:24.078Z,33.10
2022-07-30T09:10:29.729Z,32.38
2022-07-30T09:11:35.767Z,32.67
2022-07-30T09:12:42.280Z,33.56
2022-07-30T09:13:46.398Z,32.70
2022-07-30T09:15:08.312Z,32.70
2022-07-30T09:16:26.770Z,32.45
2022-07-30T09:17:47.776Z,33.02
2022-07-30T09:18:53.092Z,33.02
2022-07-30T09:20:04.454Z,32.86
2022-07-30T09:21:19.780Z,32.86
2022-07-30T09:22:23.835Z,32.99
2022-07-30T09:23:29.525Z,32.57
2022-07-30T09:24:39.356Z,32.57
2022-07-30T09:25:55.130Z,33.04
2022-07-30T09:27:03.805Z,33.00
2022-07-30T09:28:16.173Z,32.90
2022-07-30T09:29:19.742Z,32.90
2022-07-30T09:30:24.033Z,32.83
2022-07-30T09:32:50.412Z,32.98
2022-07-30T09:33:54.517Z,32.98
2022-07-30T09:35:01.499Z,33.62
2022-07-30T09:36:09.772Z,33.48
2022-07-30T09:37:16.773Z,33.77
2022-07-30T09:38:22.302Z,34.01
2022-07-30T09:39:34.083Z,34.01
2022-07-30T09:40:39.718Z,33.75
2022-07-30T09:41:45.458Z,33.61
2022-07-30T09:42:51.002Z,33.50
2022-07-30T09:43:55.056Z,33.96
2022-07-30T09:45:11.149Z,33.96
2022-07-30T09:46:17.506Z,33.82
2022-07-30T09:47:37.513Z,33.86
2022-07-30T09:48:45.421Z,34.25
2022-07-30T09:49:53.652Z,34.07
2022-07-30T09:50:57.931Z,34.45
2022-07-30T09:52:02.092Z,35.17
2022-07-30T09:53:09.313Z,35.75
2022-07-30T09:54:13.517Z,35.93
2022-07-30T09:55:34.783Z,34.33
2022-07-30T09:56:37.867Z,34.71
2022-07-30T09:58:00.199Z,34.71
2022-07-30T09:59:18.646Z,32.50
2022-07-30T10:00:24.158Z,32.86
2022-07-30T10:01:49.931Z,32.86
2022-07-30T10:02:35.115Z,32.78
2022-07-30T10:03:42.612Z,32.45
2022-07-30T10:04:48.760Z,32.83
2022-07-30T10:05:58.376Z,32.83
2022-07-30T10:07:06.847Z,32.90
2022-07-30T10:08:18.977Z,32.55
2022-07-30T10:09:31.917Z,32.81
2022-07-30T10:10:46.845Z,32.87
2022-07-30T10:11:42.339Z,32.68
2022-07-30T10:12:48.092Z,32.68
2022-07-30T10:13:54.908Z,32.26
2022-07-30T10:15:01.003Z,32.26
2022-07-30T10:16:06.659Z,31.57
2022-07-30T10:17:12.896Z,31.57
2022-07-30T10:18:18.202Z,31.84
2022-07-30T10:19:39.843Z,31.84
2022-07-30T10:20:30.564Z,32.40
2022-07-30T10:21:36.734Z,32.40
2022-07-30T10:22:43.953Z,32.65
2022-07-30T10:23:51.633Z,31.47
2022-07-30T10:24:56.028Z,31.47
2022-07-30T10:26:03.644Z,31.19
2022-07-30T10:27:09.712Z,32.60
2022-07-30T10:28:17.363Z,32.60
2022-07-30T10:29:34.000Z,32.34
2022-07-30T10:30:33.314Z,32.34
2022-07-30T10:31:46.835Z,31.92
2022-07-30T10:32:46.496Z,32.30
2022-07-30T10:33:53.012Z,32.30
2022-07-30T10:35:01.242Z,31.85
2022-07-30T10:36:05.494Z,31.85
2022-07-30T10:37:12.982Z,32.47
2022-07-30T10:38:19.863Z,33.20
2022-07-30T10:39:29.689Z,31.77
2022-07-30T10:40:40.091Z,31.77
2022-07-30T10:41:54.135Z,31.80
2022-07-30T10:43:18.064Z,31.80
2022-07-30T10:44:27.044Z,31.48
2022-07-30T10:45:50.029Z,31.82
2022-07-30T10:47:00.307Z,31.82
2022-07-30T10:48:06.869Z,31.44
2022-07-30T10:49:18.625Z,32.58
2022-07-30T10:50:25.694Z,32.36
2022-07-30T10:51:46.517Z,32.31
2022-07-30T10:53:01.030Z,33.45
2022-07-30T10:54:05.221Z,33.45
2022-07-30T10:55:15.831Z,33.66
2022-07-30T10:56:25.793Z,33.66
2022-07-30T10:57:32.643Z,33.74
2022-07-30T10:58:38.205Z,33.85
2022-07-30T10:59:59.869Z,33.85
2022-07-30T11:01:04.865Z,33.77
2022-07-30T11:02:10.780Z,33.77
2022-07-30T11:03:40.734Z,33.92
2022-07-30T11:04:30.639Z,34.35
2022-07-30T11:05:45.282Z,34.58
2022-07-30T11:06:42.231Z,35.10
2022-07-30T11:07:47.194Z,34.52
2022-07-30T11:08:52.126Z,34.52
2022-07-30T11:10:11.890Z,35.19
2022-07-30T11:12:01.978Z,35.19
2022-07-30T11:12:47.063Z,34.85
2022-07-30T11:13:54.591Z,35.04
2022-07-30T11:15:06.804Z,35.19
2022-07-30T11:16:07.500Z,34.79
2022-07-30T11:17:12.498Z,35.39
2022-07-30T11:18:16.830Z,35.20
2022-07-30T11:19:55.904Z,34.14
2022-07-30T11:20:32.773Z,34.14
2022-07-30T11:21:37.022Z,34.44
2022-07-30T11:22:42.032Z,34.50
2022-07-30T11:23:47.140Z,34.50
2022-07-30T11:24:53.460Z,34.74
2022-07-30T11:25:59.255Z,34.20
2022-07-30T11:27:04.261Z,34.51
2022-07-30T11:28:08.311Z,34.07
2022-07-30T11:29:51.225Z,33.94
2022-07-30T11:30:44.438Z,33.94
2022-07-30T11:31:56.873Z,34.13
2022-07-30T11:33:07.684Z,34.13
2022-07-30T11:34:25.810Z,34.64
2022-07-30T11:35:35.212Z,34.64
2022-07-30T11:36:40.195Z,34.15
2022-07-30T11:38:19.025Z,34.10
2022-07-30T11:39:21.918Z,34.35
2022-07-30T11:40:31.256Z,34.43
2022-07-30T11:41:35.397Z,34.63
2022-07-30T11:42:41.822Z,34.87
2022-07-30T11:43:45.955Z,34.87
2022-07-30T11:44:50.294Z,35.05
2022-07-30T11:46:06.407Z,34.66
2022-07-30T11:47:16.756Z,34.66
2022-07-30T11:48:20.103Z,34.46
2022-07-30T11:49:24.695Z,34.83
2022-07-30T11:50:35.187Z,34.40
2022-07-30T11:51:44.560Z,35.12
2022-07-30T11:52:56.908Z,35.12
2022-07-30T11:54:07.971Z,34.24
2022-07-30T11:55:19.079Z,34.50
2022-07-30T11:56:22.405Z,34.50
2022-07-30T11:57:42.594Z,34.43
2022-07-30T11:58:48.298Z,34.47
2022-07-30T11:59:58.002Z,34.19
2022-07-30T12:01:09.547Z,34.19
2022-07-30T12:02:10.567Z,35.09
2022-07-30T12:03:17.177Z,34.93
2022-07-30T12:04:21.312Z,34.80
2022-07-30T12:05:38.587Z,35.59
2022-07-30T12:06:33.640Z,34.95
2022-07-30T12:07:38.010Z,34.93
2022-07-30T12:08:45.895Z,34.93
2022-07-30T12:09:49.653Z,34.66
2022-07-30T12:11:01.670Z,34.12
2022-07-30T12:12:11.103Z,34.12
2022-07-30T12:13:17.705Z,33.84
2022-07-30T12:14:21.830Z,33.84
2022-07-30T12:15:34.649Z,33.68
2022-07-30T12:16:40.709Z,33.68
2022-07-30T12:17:46.245Z,33.73
2022-07-30T12:18:50.252Z,33.64
2022-07-30T12:19:54.425Z,33.91
2022-07-30T12:21:04.509Z,34.14
2022-07-30T12:22:08.615Z,34.14
2022-07-30T12:23:14.076Z,35.09
2022-07-30T12:24:23.052Z,33.61
2022-07-30T12:25:26.875Z,34.07
2022-07-30T12:26:34.055Z,35.15
2022-07-30T12:27:38.542Z,35.15
2022-07-30T12:28:42.802Z,34.90
2022-07-30T12:29:46.919Z,34.90
2022-07-30T12:30:53.821Z,36.05
2022-07-30T12:31:59.386Z,36.01
2022-07-30T12:33:03.489Z,37.14
2022-07-30T12:34:24.642Z,37.69
2022-07-30T12:35:42.878Z,37.87
2022-07-30T12:36:48.644Z,37.65
2022-07-30T12:38:38.280Z,37.65
2022-07-30T12:39:32.049Z,38.53
2022-07-30T12:40:55.024Z,37.82
2022-07-30T12:41:59.191Z,37.91
2022-07-30T12:43:03.496Z,37.91
2022-07-30T12:44:09.333Z,38.09
2022-07-30T12:45:16.376Z,38.09
2022-07-30T12:46:24.984Z,39.43
2022-07-30T12:47:31.027Z,39.11
2022-07-30T12:48:36.752Z,38.54
2022-07-30T12:49:48.982Z,38.28
2022-07-30T12:50:48.425Z,38.28
2022-07-30T12:51:59.866Z,37.92
2022-07-30T12:52:59.985Z,37.92
2022-07-30T12:54:15.617Z,37.83
2022-07-30T12:56:51.745Z,38.28
2022-07-30T12:57:11.329Z,37.83
2022-07-30T12:58:08.977Z,38.83
2022-07-30T12:59:23.074Z,38.83
2022-07-30T13:00:34.258Z,36.30
2022-07-30T13:01:46.384Z,36.11
2022-07-30T13:02:53.910Z,36.46
2022-07-30T13:04:02.468Z,36.42
2022-07-30T13:05:10.994Z,36.42
2022-07-30T13:06:22.383Z,36.37
2022-07-30T13:07:29.514Z,37.52
2022-07-30T13:08:54.076Z,37.42
2022-07-30T13:10:13.037Z,37.42
2022-07-30T13:11:19.278Z,37.52
2022-07-30T13:12:23.389Z,36.31
2022-07-30T13:13:29.165Z,36.71
2022-07-30T13:14:36.072Z,36.71
2022-07-30T13:15:40.285Z,36.47
2022-07-30T13:16:46.133Z,36.42
2022-07-30T13:17:50.525Z,35.65
2022-07-30T13:18:54.524Z,35.27
2022-07-30T13:20:00.254Z,35.27
2022-07-30T13:21:07.572Z,35.35
2022-07-30T13:22:11.609Z,36.83
2022-07-30T13:23:15.646Z,36.71
2022-07-30T13:24:21.090Z,36.71
2022-07-30T13:27:18.647Z,36.27
2022-07-30T13:28:15.045Z,35.97
2022-07-30T13:29:20.680Z,35.94
2022-07-30T13:30:26.381Z,35.94
2022-07-30T13:31:43.212Z,36.81
2022-07-30T13:32:36.161Z,35.57
2022-07-30T13:33:40.668Z,36.56
2022-07-30T13:34:44.843Z,36.56
2022-07-30T13:35:48.882Z,36.28
2022-07-30T13:36:53.221Z,36.92
2022-07-30T13:37:59.220Z,36.92
2022-07-30T13:39:03.136Z,35.84
2022-07-30T13:40:08.279Z,36.07
2022-07-30T13:41:13.283Z,36.27
2022-07-30T13:42:18.987Z,36.27
2022-07-30T13:43:25.137Z,36.01
2022-07-30T13:44:29.270Z,36.56
2022-07-30T13:45:34.572Z,37.12
2022-07-30T13:46:41.332Z,38.25
2022-07-30T13:47:49.544Z,38.85
2022-07-30T13:49:05.071Z,39.56
2022-07-30T13:50:11.003Z,39.67
2022-07-30T13:51:18.242Z,39.29
2022-07-30T13:52:36.085Z,39.29
2022-07-30T13:53:33.866Z,37.87
2022-07-30T13:54:37.990Z,37.41
2022-07-30T13:55:42.153Z,37.17
2022-07-30T13:56:46.307Z,37.17
2022-07-30T13:57:52.629Z,36.44
2022-07-30T13:58:58.262Z,36.92
2022-07-30T14:00:02.746Z,37.08
2022-07-30T14:01:08.511Z,37.15
2022-07-30T14:02:14.225Z,37.15
2022-07-30T14:03:21.381Z,36.52
2022-07-30T14:04:25.562Z,36.52
2022-07-30T14:05:29.930Z,36.63
2022-07-30T14:06:34.466Z,36.63
2022-07-30T14:07:39.739Z,36.32
2022-07-30T14:08:45.332Z,37.12
2022-07-30T14:09:54.406Z,37.12
2022-07-30T14:10:56.943Z,36.89
2022-07-30T14:12:01.093Z,37.24
2022-07-30T14:13:06.470Z,37.46
2022-07-30T14:14:12.086Z,37.00
2022-07-30T14:15:18.010Z,37.00
2022-07-30T14:16:44.309Z,37.36
2022-07-30T14:17:32.644Z,37.70
2022-07-30T14:18:38.303Z,37.61
2022-07-30T14:19:44.346Z,37.72
2022-07-30T14:20:48.885Z,37.98
2022-07-30T14:21:54.133Z,37.93
2022-07-30T14:23:02.703Z,37.93
2022-07-30T14:24:07.931Z,38.16
2022-07-30T14:25:14.247Z,39.00
2022-07-30T14:26:20.099Z,38.22
2022-07-30T14:27:24.067Z,38.25
2022-07-30T14:28:28.213Z,38.52
2022-07-30T14:29:32.290Z,38.52
2022-07-30T14:30:37.127Z,38.66